Time;durP1;ratioP1;P1;durP2;ratioP2;P2;SDS_P1;SDS_P2;PMS_P1;PMS_P2;Temp;Humidity;BMP_temperature;BMP_pressure;BME280_temperature;BME280_humidity;BME280_pressure;Samples;Min_cycle;Max_cycle;Signal;HPM_P1;HPM_P2
2024/03/05 00:00:41;;;;;;;0.82;0.50;;;7.50;72.60;;;;;;4981673;28;20614;-78
2024/03/05 00:03:09;;;;;;;0.50;0.50;;;7.50;73.50;;;;;;4956121;28;20136;-81
2024/03/05 00:05:36;;;;;;;0.50;0.50;;;7.50;75.80;;;;;;4954848;28;20058;-81
2024/03/05 00:08:03;;;;;;;0.80;0.40;;;7.50;79.60;;;;;;4971492;28;20417;-78
2024/03/05 00:10:31;;;;;;;0.43;0.43;;;7.50;82.10;;;;;;4953461;28;20145;-79
2024/03/05 00:12:59;;;;;;;0.68;0.50;;;7.50;83.40;;;;;;4970242;28;20046;-79
2024/03/05 00:15:26;;;;;;;0.82;0.43;;;7.60;85.00;;;;;;4952990;28;20053;-79
2024/03/05 00:17:54;;;;;;;0.30;0.30;;;7.60;83.90;;;;;;4969779;28;20054;-79
2024/03/05 00:20:21;;;;;;;0.57;0.52;;;7.60;84.20;;;;;;4967759;28;20736;-79
2024/03/05 00:22:48;;;;;;;0.63;0.50;;;7.60;85.70;;;;;;4951033;28;20133;-79
2024/03/05 00:25:16;;;;;;;0.85;0.40;;;7.60;87.50;;;;;;4966730;28;20053;-79
2024/03/05 00:27:44;;;;;;;0.75;0.55;;;7.60;88.70;;;;;;4951904;28;20061;-79
2024/03/05 00:30:13;;;;;;;2.20;0.68;;;7.60;88.10;;;;;;4968085;28;20054;-79
2024/03/05 00:32:40;;;;;;;1.08;0.60;;;7.60;90.20;;;;;;4970132;28;20062;-79
2024/03/05 00:35:07;;;;;;;0.57;0.50;;;7.60;93.10;;;;;;4986351;28;20047;-78
2024/03/05 00:37:35;;;;;;;0.57;0.40;;;7.60;92.00;;;;;;4970489;28;20046;-79
2024/03/05 00:40:08;;;;;;;0.50;0.50;;;7.60;92.50;;;;;;4978796;28;20469;-79
2024/03/05 00:42:36;;;;;;;0.75;0.50;;;7.70;94.40;;;;;;4971593;28;20062;-79
2024/03/05 00:45:06;;;;;;;0.38;0.38;;;7.70;95.70;;;;;;4969328;28;20051;-79
2024/03/05 00:47:34;;;;;;;0.40;0.40;;;7.70;97.90;;;;;;4969802;28;20074;-79
2024/03/05 00:50:03;;;;;;;0.65;0.50;;;7.70;99.90;;;;;;4984666;28;20051;-79
2024/03/05 00:52:31;;;;;;;0.50;0.50;;;7.70;99.90;;;;;;4954255;28;20062;-79
2024/03/05 00:54:58;;;;;;;0.40;0.40;;;7.70;99.90;;;;;;4953281;28;20050;-78
2024/03/05 00:57:25;;;;;;;0.50;0.50;;;7.70;99.90;;;;;;4951993;28;20675;-78
2024/03/05 00:59:53;;;;;;;1.23;0.50;;;7.70;99.90;;;;;;4958954;28;20496;-78
2024/03/05 01:02:21;;;;;;;0.70;0.40;;;7.70;99.90;;;;;;4967361;28;20068;-78
2024/03/05 01:04:49;;;;;;;0.30;0.30;;;7.60;99.90;;;;;;4985865;28;20060;-78
2024/03/05 01:07:17;;;;;;;0.55;0.40;;;7.70;99.90;;;;;;4971339;28;20065;-79
2024/03/05 01:09:44;;;;;;;0.63;0.40;;;7.60;99.90;;;;;;4972408;28;20060;-79
2024/03/05 01:12:11;;;;;;;0.57;0.40;;;7.60;99.90;;;;;;4987693;28;20065;-79
2024/03/05 01:14:38;;;;;;;0.45;0.45;;;7.60;99.90;;;;;;4988636;28;20046;-79
2024/03/05 01:17:05;;;;;;;0.50;0.50;;;7.70;99.90;;;;;;4971306;28;20050;-79
2024/03/05 01:19:32;;;;;;;0.45;0.45;;;7.60;99.90;;;;;;5004666;28;20050;-79
2024/03/05 01:21:59;;;;;;;0.30;0.30;;;7.60;99.90;;;;;;4972617;28;20050;-79
2024/03/05 01:24:27;;;;;;;0.38;0.38;;;7.60;99.90;;;;;;4988566;28;20046;-78
2024/03/05 01:26:54;;;;;;;0.68;0.68;;;7.60;99.90;;;;;;4971209;28;20105;-79
2024/03/05 01:29:21;;;;;;;0.50;0.40;;;7.60;99.90;;;;;;4987586;28;20145;-79
2024/03/05 01:31:56;;;;;;;0.75;0.70;;;7.60;99.90;;;;;;4970419;28;20137;-79
2024/03/05 01:34:23;;;;;;;0.50;0.40;;;7.60;99.90;;;;;;4989355;28;20463;-79
2024/03/05 01:36:50;;;;;;;0.82;0.52;;;7.60;1.00;;;;;;4988167;28;20054;-79
2024/03/05 01:39:17;;;;;;;0.30;0.30;;;7.50;1.00;;;;;;4989344;28;20045;-78
2024/03/05 01:41:44;;;;;;;0.80;0.50;;;7.50;1.00;;;;;;4972194;28;20081;-78
2024/03/05 01:44:15;;;;;;;0.70;0.43;;;7.50;30.20;;;;;;5005049;28;20107;-78
2024/03/05 01:46:42;;;;;;;0.40;0.40;;;7.50;55.90;;;;;;4988050;28;20276;-79
2024/03/05 01:49:09;;;;;;;0.45;0.45;;;7.50;99.90;;;;;;5005005;28;20045;-79
2024/03/05 01:51:36;;;;;;;0.50;0.40;;;7.50;99.90;;;;;;5004632;28;20053;-79
2024/03/05 01:54:02;;;;;;;0.30;0.30;;;7.50;99.90;;;;;;4972761;28;20053;-79
2024/03/05 01:56:29;;;;;;;1.00;0.43;;;7.50;99.90;;;;;;4971234;28;20096;-79
2024/03/05 01:58:56;;;;;;;0.40;0.40;;;7.50;99.90;;;;;;4971070;28;20079;-79
2024/03/05 02:01:23;;;;;;;0.32;0.32;;;7.50;99.90;;;;;;4985811;28;20122;-79
2024/03/05 02:03:50;;;;;;;0.30;0.30;;;7.50;99.90;;;;;;4972507;28;20786;-79
2024/03/05 02:06:17;;;;;;;0.40;0.35;;;7.60;99.90;;;;;;4972395;28;20586;-79
2024/03/05 02:08:44;;;;;;;0.45;0.45;;;7.60;1.00;;;;;;4988501;28;20062;-78
2024/03/05 02:11:11;;;;;;;0.40;0.40;;;7.50;1.00;;;;;;4984046;28;20117;-78
2024/03/05 02:13:38;;;;;;;1.35;0.47;;;7.50;1.00;;;;;;4969014;28;20382;-79
2024/03/05 02:16:05;;;;;;;0.38;0.38;;;7.50;88.70;;;;;;4982910;28;20053;-79
2024/03/05 02:18:32;;;;;;;0.32;0.32;;;7.60;99.90;;;;;;4968623;28;20133;-79
2024/03/05 02:21:03;;;;;;;0.20;0.20;;;7.60;99.90;;;;;;4968563;28;20046;-80
2024/03/05 02:23:30;;;;;;;0.38;0.38;;;7.50;99.90;;;;;;4968061;28;20156;-80
2024/03/05 02:25:56;;;;;;;0.38;0.38;;;7.60;99.90;;;;;;4984424;28;20050;-80
2024/03/05 02:28:23;;;;;;;0.50;0.50;;;7.60;99.90;;;;;;4968456;28;20133;-80
2024/03/05 02:30:50;;;;;;;0.40;0.40;;;7.60;1.00;;;;;;4952785;28;20106;-80
2024/03/05 02:33:18;;;;;;;0.30;0.30;;;7.50;1.00;;;;;;4987252;28;20501;-80
2024/03/05 02:35:46;;;;;;;0.30;0.30;;;7.60;1.00;;;;;;4986990;28;20046;-80
2024/03/05 02:38:13;;;;;;;0.40;0.40;;;7.60;1.00;;;;;;4971456;28;20101;-80
2024/03/05 02:40:40;;;;;;;0.40;0.40;;;7.60;1.00;;;;;;4976908;28;20412;-80
2024/03/05 02:43:07;;;;;;;0.40;0.40;;;7.50;38.70;;;;;;4988940;28;20097;-80
2024/03/05 02:45:34;;;;;;;0.50;0.50;;;7.50;21.40;;;;;;4987995;28;20737;-80
2024/03/05 02:48:04;;;;;;;0.40;0.40;;;7.50;1.00;;;;;;5005423;28;20061;-80
2024/03/05 02:50:31;;;;;;;0.63;0.50;;;7.50;29.10;;;;;;4973520;28;20070;-80
2024/03/05 02:52:58;;;;;;;0.35;0.35;;;7.50;65.50;;;;;;4988772;28;20646;-80
2024/03/05 02:55:25;;;;;;;0.75;0.60;;;7.50;99.90;;;;;;4972643;28;20116;-80
2024/03/05 02:57:52;;;;;;;0.30;0.30;;;7.50;5.60;;;;;;4989461;28;20042;-80
2024/03/05 03:00:18;;;;;;;0.40;0.40;;;7.50;99.90;;;;;;5004536;28;20061;-79
2024/03/05 03:02:50;;;;;;;0.82;0.80;;;7.50;97.20;;;;;;5005956;28;20153;-80
2024/03/05 03:05:17;;;;;;;0.63;0.43;;;7.50;81.00;;;;;;5004805;28;20089;-80
2024/03/05 03:07:44;;;;;;;0.40;0.40;;;7.50;32.10;;;;;;5005266;28;20046;-80
2024/03/05 03:10:11;;;;;;;0.30;0.30;;;7.50;99.90;;;;;;5005047;28;20131;-79
2024/03/05 03:12:39;;;;;;;0.43;0.40;;;7.50;99.90;;;;;;5004667;28;20046;-80
2024/03/05 03:15:09;;;;;;;0.68;0.50;;;7.50;55.00;;;;;;4987696;28;20567;-79
2024/03/05 03:17:38;;;;;;;1.05;0.38;;;7.50;72.00;;;;;;4988214;28;20137;-79
2024/03/05 03:20:07;;;;;;;0.40;0.40;;;7.50;95.60;;;;;;4972508;28;20587;-79
2024/03/05 03:22:35;;;;;;;0.40;0.40;;;7.50;99.90;;;;;;5005073;28;20050;-79
2024/03/05 03:25:04;;;;;;;0.47;0.47;;;7.50;38.40;;;;;;4988648;28;20147;-79
2024/03/05 03:27:31;;;;;;;0.47;0.47;;;7.50;49.40;;;;;;4988795;28;20429;-79
2024/03/05 03:29:57;;;;;;;0.40;0.30;;;7.50;49.20;;;;;;4988012;28;20073;-78
2024/03/05 03:32:24;;;;;;;0.63;0.60;;;7.50;1.00;;;;;;4971857;28;20062;-79
2024/03/05 03:34:51;;;;;;;0.32;0.32;;;7.50;1.00;;;;;;4972378;28;20116;-78
2024/03/05 03:37:19;;;;;;;0.57;0.40;;;7.50;1.00;;;;;;4974766;28;20714;-79
2024/03/05 03:39:48;;;;;;;0.40;0.40;;;7.50;1.00;;;;;;4976036;28;20072;-78
2024/03/05 03:42:16;;;;;;;0.40;0.40;;;7.40;1.00;;;;;;4992165;28;20053;-79
2024/03/05 03:44:43;;;;;;;0.40;0.40;;;7.50;93.80;;;;;;4992376;28;20104;-79
2024/03/05 03:47:10;;;;;;;0.52;0.50;;;7.50;1.00;;;;;;4990592;28;20061;-79
2024/03/05 03:49:36;;;;;;;0.40;0.30;;;7.40;2.00;;;;;;4965995;28;20050;-79
2024/03/05 03:52:05;;;;;;;0.22;0.20;;;7.40;94.30;;;;;;4972362;28;20136;-80
2024/03/05 03:54:33;;;;;;;0.38;0.38;;;7.40;99.90;;;;;;4972475;28;20113;-80
2024/03/05 03:57:00;;;;;;;0.95;0.40;;;7.50;98.90;;;;;;4956398;28;20047;-80
2024/03/05 03:59:27;;;;;;;0.30;0.30;;;7.40;99.90;;;;;;4972499;28;20054;-80
2024/03/05 04:01:54;;;;;;;0.45;0.38;;;7.50;99.90;;;;;;4987516;28;20062;-79
2024/03/05 04:04:21;;;;;;;0.30;0.30;;;7.50;99.90;;;;;;4991823;28;20084;-78
2024/03/05 04:06:48;;;;;;;0.30;0.30;;;7.50;99.90;;;;;;5007293;28;20061;-79
2024/03/05 04:09:15;;;;;;;0.40;0.40;;;7.50;99.90;;;;;;4991997;28;20053;-79
2024/03/05 04:11:42;;;;;;;0.40;0.40;;;7.40;99.90;;;;;;5007836;28;20097;-79
2024/03/05 04:14:09;;;;;;;0.30;0.30;;;7.50;99.90;;;;;;4992761;28;20050;-79
2024/03/05 04:16:40;;;;;;;0.50;0.50;;;7.50;99.90;;;;;;4989735;28;20061;-79
2024/03/05 04:19:07;;;;;;;0.40;0.40;;;7.40;99.90;;;;;;5008176;28;20538;-79
2024/03/05 04:21:44;;;;;;;0.40;0.40;;;7.50;99.90;;;;;;5007026;28;20046;-79
2024/03/05 04:24:12;;;;;;;0.43;0.43;;;7.50;99.90;;;;;;4991909;28;20057;-79
2024/03/05 04:26:41;;;;;;;0.40;0.40;;;7.50;99.90;;;;;;4991476;28;20050;-79
2024/03/05 04:29:09;;;;;;;0.30;0.30;;;7.50;99.90;;;;;;4991629;28;20046;-79
2024/03/05 04:31:37;;;;;;;0.50;0.50;;;7.50;99.90;;;;;;4973495;28;20046;-79
2024/03/05 04:34:18;;;;;;;0.30;0.30;;;7.50;99.90;;;;;;4978659;28;20058;-79
2024/03/05 04:36:46;;;;;;;0.63;0.45;;;7.50;99.90;;;;;;5006907;28;20054;-79
2024/03/05 04:39:15;;;;;;;0.40;0.40;;;7.50;99.90;;;;;;5007667;28;20058;-79
2024/03/05 04:41:46;;;;;;;0.45;0.45;;;7.60;99.90;;;;;;4990739;28;20120;-79
2024/03/05 04:44:13;;;;;;;0.30;0.30;;;7.50;99.90;;;;;;4991031;28;20069;-79
2024/03/05 04:46:40;;;;;;;0.20;0.20;;;7.50;99.90;;;;;;4988328;28;20496;-79
2024/03/05 04:49:07;;;;;;;0.20;0.20;;;7.50;99.90;;;;;;5008695;28;20081;-79
2024/03/05 04:51:34;;;;;;;0.40;0.40;;;7.50;99.90;;;;;;4990856;28;20104;-79
2024/03/05 04:54:02;;;;;;;0.25;0.25;;;7.50;99.90;;;;;;4991569;28;20058;-79
2024/03/05 04:56:28;;;;;;;0.55;0.40;;;7.50;99.90;;;;;;4974783;28;20046;-79
2024/03/05 04:58:56;;;;;;;0.40;0.40;;;7.40;99.90;;;;;;4991483;28;20046;-79
2024/03/05 05:01:23;;;;;;;0.30;0.30;;;7.40;99.90;;;;;;5005235;28;20049;-79
2024/03/05 05:03:50;;;;;;;0.40;0.40;;;7.50;99.90;;;;;;4991088;28;20049;-79
2024/03/05 05:06:17;;;;;;;0.38;0.30;;;7.50;99.90;;;;;;5007075;28;20049;-79
2024/03/05 05:08:45;;;;;;;0.40;0.40;;;7.50;99.90;;;;;;4991201;28;20085;-79
2024/03/05 05:11:12;;;;;;;0.30;0.30;;;7.50;99.90;;;;;;5008062;28;20050;-79
2024/03/05 05:13:40;;;;;;;0.40;0.40;;;7.50;99.90;;;;;;5006742;28;20511;-78
2024/03/05 05:16:11;;;;;;;0.32;0.32;;;7.50;99.90;;;;;;5006615;28;20042;-79
2024/03/05 05:18:38;;;;;;;0.40;0.40;;;7.50;99.90;;;;;;5007198;28;20064;-78
2024/03/05 05:21:07;;;;;;;0.47;0.47;;;7.50;99.90;;;;;;4970735;28;20054;-78
2024/03/05 05:23:34;;;;;;;0.30;0.30;;;7.50;99.90;;;;;;4987439;28;20460;-79
2024/03/05 05:26:02;;;;;;;0.60;0.60;;;7.50;99.90;;;;;;4986912;28;20061;-79
2024/03/05 05:28:28;;;;;;;0.30;0.30;;;7.60;99.90;;;;;;5006832;28;20077;-78
2024/03/05 05:30:56;;;;;;;0.35;0.35;;;7.60;99.90;;;;;;5003942;28;20049;-79
2024/03/05 05:33:22;;;;;;;0.20;0.20;;;7.60;99.90;;;;;;5007617;28;20074;-78
2024/03/05 05:35:50;;;;;;;0.50;0.50;;;7.60;99.90;;;;;;5007520;28;20053;-79
2024/03/05 05:38:16;;;;;;;0.40;0.40;;;7.60;99.90;;;;;;5007877;28;20606;-79
2024/03/05 05:40:43;;;;;;;0.22;0.22;;;7.60;99.90;;;;;;4989554;28;20050;-78
2024/03/05 05:43:11;;;;;;;0.60;0.60;;;7.60;99.90;;;;;;5007539;28;20064;-79
2024/03/05 05:45:38;;;;;;;0.38;0.30;;;7.60;99.90;;;;;;4988178;28;20117;-79
2024/03/05 05:48:05;;;;;;;0.40;0.40;;;7.60;99.90;;;;;;5005075;28;20089;-78
2024/03/05 05:50:32;;;;;;;0.20;0.20;;;7.60;99.90;;;;;;4990006;28;20049;-80
2024/03/05 05:52:59;;;;;;;1.20;0.52;;;7.60;99.90;;;;;;5003182;28;20049;-79
2024/03/05 05:55:27;;;;;;;0.70;0.70;;;7.60;99.90;;;;;;5002504;28;20072;-78
2024/03/05 05:57:55;;;;;;;1.00;0.55;;;7.60;99.90;;;;;;5004064;28;20104;-78
2024/03/05 06:00:24;;;;;;;0.50;0.50;;;7.60;99.90;;;;;;5000468;28;20676;-79
2024/03/05 06:02:52;;;;;;;0.55;0.52;;;7.60;99.90;;;;;;4999683;28;20050;-81
2024/03/05 06:05:27;;;;;;;1.00;0.75;;;7.60;1.00;;;;;;5000269;28;20105;-80
2024/03/05 06:07:54;;;;;;;0.60;0.60;;;7.60;1.00;;;;;;5000476;28;20073;-81
2024/03/05 06:10:24;;;;;;;0.80;0.60;;;7.60;1.00;;;;;;4984552;28;20054;-81
2024/03/05 06:12:51;;;;;;;0.98;0.80;;;7.60;1.00;;;;;;4981898;28;20057;-82
2024/03/05 06:15:18;;;;;;;0.50;0.50;;;7.70;99.90;;;;;;4954230;28;20825;-81
2024/03/05 06:17:45;;;;;;;0.52;0.52;;;7.60;1.00;;;;;;4974925;28;20051;-81
2024/03/05 06:20:13;;;;;;;0.60;0.60;;;7.70;1.00;;;;;;4977561;28;20072;-81
2024/03/05 06:22:44;;;;;;;0.60;0.60;;;7.70;1.00;;;;;;4975881;28;20046;-81
2024/03/05 06:25:13;;;;;;;0.98;0.70;;;7.70;1.00;;;;;;4973764;28;20057;-81
2024/03/05 06:27:40;;;;;;;0.98;0.80;;;7.70;1.00;;;;;;4958259;28;20077;-80
2024/03/05 06:30:09;;;;;;;0.60;0.60;;;7.70;1.00;;;;;;4961072;28;20156;-81
2024/03/05 06:32:37;;;;;;;0.63;0.60;;;7.70;1.00;;;;;;4961100;28;20648;-81
2024/03/05 06:35:05;;;;;;;0.32;0.32;;;7.70;1.00;;;;;;4973001;28;20141;-79
2024/03/05 06:37:32;;;;;;;0.60;0.60;;;7.80;1.00;;;;;;4969004;28;20430;-79
2024/03/05 06:40:00;;;;;;;0.80;0.50;;;7.80;1.00;;;;;;4970830;28;20046;-79
2024/03/05 06:42:30;;;;;;;0.65;0.52;;;7.80;99.90;;;;;;5003086;28;20057;-79
2024/03/05 06:45:05;;;;;;;0.65;0.60;;;7.80;99.90;;;;;;4985764;28;20042;-79
2024/03/05 06:47:46;;;;;;;0.60;0.60;;;7.80;99.90;;;;;;4985773;28;20057;-80
2024/03/05 06:50:19;;;;;;;0.50;0.50;;;7.80;99.90;;;;;;4983733;28;20084;-79
2024/03/05 06:58:17;;;;;;;0.40;0.40;;;7.70;1.00;;;;;;4998665;28;20061;-79
2024/03/05 07:00:46;;;;;;;0.52;0.52;;;7.80;1.00;;;;;;4979690;28;20124;-78
2024/03/05 07:03:13;;;;;;;1.08;0.75;;;7.80;9.10;;;;;;4989511;28;20049;-78
2024/03/05 07:05:40;;;;;;;0.90;0.90;;;7.70;1.00;;;;;;4988936;28;20077;-79
2024/03/05 07:08:08;;;;;;;1.02;0.90;;;7.70;9.80;;;;;;4977549;28;20046;-79
2024/03/05 07:10:36;;;;;;;0.73;0.70;;;7.70;79.60;;;;;;4983826;28;20989;-78
2024/03/05 07:13:03;;;;;;;0.82;0.82;;;7.80;99.90;;;;;;4999978;28;20058;-80
2024/03/05 07:15:29;;;;;;;1.23;0.70;;;7.80;99.90;;;;;;4958779;28;20055;-80
2024/03/05 07:17:56;;;;;;;0.63;0.60;;;7.80;99.90;;;;;;4969843;28;20610;-80
2024/03/05 07:20:24;;;;;;;0.60;0.57;;;7.90;99.90;;;;;;4985235;28;20495;-78
2024/03/05 07:22:52;;;;;;;0.50;0.50;;;8.00;1.00;;;;;;4993467;28;20082;-78
2024/03/05 07:25:22;;;;;;;0.75;0.65;;;8.00;1.00;;;;;;4967443;28;20433;-78
2024/03/05 07:27:49;;;;;;;0.60;0.60;;;8.00;99.90;;;;;;4971170;28;20131;-78
2024/03/05 07:30:17;;;;;;;0.60;0.60;;;8.10;99.90;;;;;;4952977;28;20077;-78
2024/03/05 07:32:47;;;;;;;0.60;0.60;;;8.10;99.90;;;;;;4970264;28;20079;-78
2024/03/05 07:35:15;;;;;;;0.88;0.70;;;8.20;99.90;;;;;;4955528;28;20062;-78
2024/03/05 07:37:45;;;;;;;0.75;0.60;;;8.30;99.90;;;;;;4970855;28;20054;-79
2024/03/05 07:40:18;;;;;;;0.52;0.52;;;8.30;99.90;;;;;;4985951;28;20053;-80
2024/03/05 07:42:53;;;;;;;0.60;0.60;;;8.30;1.00;;;;;;4983929;28;20073;-79
2024/03/05 07:45:21;;;;;;;0.87;0.63;;;8.30;1.00;;;;;;4982579;28;20116;-80
2024/03/05 07:47:49;;;;;;;1.35;0.90;;;8.40;99.90;;;;;;4954189;28;20050;-79
2024/03/05 07:50:16;;;;;;;0.80;0.80;;;8.40;99.90;;;;;;4967971;28;20607;-80
2024/03/05 07:52:44;;;;;;;0.60;0.60;;;8.40;99.90;;;;;;4989720;28;20061;-79
2024/03/05 07:55:16;;;;;;;1.30;1.20;;;8.40;99.90;;;;;;5005820;28;20085;-79
2024/03/05 07:57:47;;;;;;;0.50;0.50;;;8.40;99.90;;;;;;4975972;28;20050;-79
2024/03/05 08:00:14;;;;;;;0.90;0.77;;;8.40;99.90;;;;;;4989026;28;20679;-79
2024/03/05 08:02:42;;;;;;;0.60;0.60;;;8.50;99.90;;;;;;4989457;28;20116;-78
2024/03/05 08:05:09;;;;;;;0.75;0.75;;;8.50;99.90;;;;;;5006264;28;20073;-79
2024/03/05 08:07:36;;;;;;;0.73;0.73;;;8.60;99.90;;;;;;5007124;28;20460;-79
2024/03/05 08:10:07;;;;;;;1.67;0.80;;;8.70;99.90;;;;;;4973449;28;20389;-79
2024/03/05 08:12:42;;;;;;;0.70;0.70;;;8.80;99.90;;;;;;5005822;28;20559;-79
2024/03/05 08:15:12;;;;;;;0.60;0.60;;;8.90;80.80;;;;;;4973282;28;20396;-79
2024/03/05 08:17:49;;;;;;;0.75;0.70;;;9.00;1.00;;;;;;5005672;28;20049;-78
2024/03/05 08:20:25;;;;;;;0.70;0.70;;;9.10;99.90;;;;;;4972946;28;20932;-78
2024/03/05 08:22:53;;;;;;;0.70;0.70;;;9.10;99.90;;;;;;4989403;28;20045;-78
2024/03/05 08:25:21;;;;;;;0.60;0.60;;;9.20;1.00;;;;;;5005848;28;20054;-83
2024/03/05 08:27:55;;;;;;;1.35;0.80;;;9.30;99.90;;;;;;4990432;28;20121;-83
2024/03/05 08:30:22;;;;;;;0.90;0.60;;;9.40;99.90;;;;;;4958202;28;20080;-83
2024/03/05 08:32:51;;;;;;;0.60;0.60;;;9.40;99.90;;;;;;4972838;28;20050;-82
2024/03/05 08:35:18;;;;;;;0.63;0.63;;;9.50;60.70;;;;;;4962678;28;21019;-80
2024/03/05 08:37:46;;;;;;;0.80;0.70;;;9.50;68.60;;;;;;4993071;28;20049;-80
2024/03/05 08:40:15;;;;;;;0.80;0.80;;;9.60;1.00;;;;;;4961225;28;20403;-80
2024/03/05 08:42:43;;;;;;;0.80;0.80;;;9.70;1.00;;;;;;4969887;28;20057;-81
2024/03/05 08:45:12;;;;;;;1.50;1.00;;;9.70;1.00;;;;;;4971379;28;20065;-80
2024/03/05 08:47:41;;;;;;;0.73;0.70;;;9.70;1.00;;;;;;4973579;28;20070;-81
2024/03/05 08:50:11;;;;;;;1.95;1.55;;;9.80;1.00;;;;;;4973183;28;20053;-82
2024/03/05 08:52:38;;;;;;;2.15;1.20;;;9.70;99.90;;;;;;5005424;28;20140;-81
2024/03/05 08:55:08;;;;;;;2.03;1.20;;;9.60;99.90;;;;;;5006105;28;20141;-80
2024/03/05 08:57:37;;;;;;;1.17;1.08;;;9.60;99.90;;;;;;4989970;28;20056;-80
2024/03/05 09:00:05;;;;;;;1.00;0.90;;;9.60;99.90;;;;;;5004216;28;20080;-81
2024/03/05 09:02:51;;;;;;;1.55;1.20;;;9.60;99.90;;;;;;4984336;28;20073;-80
2024/03/05 09:05:19;;;;;;;1.30;1.17;;;9.70;99.90;;;;;;4987902;28;20049;-80
2024/03/05 09:07:46;;;;;;;1.50;1.20;;;9.60;99.90;;;;;;5005221;28;20053;-80
2024/03/05 09:10:15;;;;;;;2.08;1.30;;;9.50;99.90;;;;;;4986111;28;20141;-81
2024/03/05 09:12:42;;;;;;;0.98;0.82;;;9.50;99.90;;;;;;4967667;28;20046;-81
2024/03/05 09:15:10;;;;;;;1.27;1.10;;;9.50;99.90;;;;;;5003002;28;20061;-80
2024/03/05 09:17:36;;;;;;;1.20;1.00;;;9.60;99.90;;;;;;4981758;28;20118;-81
2024/03/05 09:20:13;;;;;;;1.10;1.00;;;9.70;99.90;;;;;;4993371;28;20054;-81
2024/03/05 09:22:44;;;;;;;1.13;0.93;;;9.80;99.90;;;;;;4976446;28;20516;-80
2024/03/05 09:25:12;;;;;;;1.42;0.80;;;9.90;99.90;;;;;;4956071;28;20054;-81
2024/03/05 09:27:40;;;;;;;1.63;1.00;;;10.00;99.90;;;;;;4966075;28;20062;-81
2024/03/05 09:30:08;;;;;;;1.20;0.88;;;10.20;99.90;;;;;;4978990;28;20431;-81
2024/03/05 09:32:35;;;;;;;1.00;0.93;;;10.20;99.90;;;;;;4981315;28;20046;-80
2024/03/05 09:35:08;;;;;;;2.10;1.13;;;10.30;99.90;;;;;;4996699;28;20049;-80
2024/03/05 09:37:36;;;;;;;;;;;10.30;99.90;;;;;;4982801;28;20558;-81
2024/03/05 09:40:06;;;;;;;0.98;0.95;;;10.40;99.90;;;;;;4996901;28;19924;-80
2024/03/05 09:42:34;;;;;;;0.90;0.80;;;10.40;99.90;;;;;;4966061;28;20102;-80
2024/03/05 09:45:05;;;;;;;0.98;0.80;;;10.50;99.90;;;;;;4965533;28;20120;-80
2024/03/05 09:47:35;;;;;;;0.80;0.80;;;10.60;99.90;;;;;;4983340;28;20433;-81
2024/03/05 09:50:03;;;;;;;1.98;1.00;;;10.50;99.90;;;;;;4980543;28;20054;-82
2024/03/05 09:52:31;;;;;;;2.42;1.33;;;10.50;99.90;;;;;;4976946;28;20053;-79
2024/03/05 09:55:01;;;;;;;1.10;0.95;;;10.50;99.90;;;;;;4978020;28;20064;-80
2024/03/05 09:57:35;;;;;;;1.42;1.17;;;10.60;99.90;;;;;;4984114;28;20885;-80
2024/03/05 10:00:05;;;;;;;1.10;1.00;;;10.70;99.90;;;;;;4955706;28;20085;-80
2024/03/05 10:02:33;;;;;;;0.80;0.80;;;10.80;99.90;;;;;;4988588;28;20973;-78
2024/03/05 10:05:02;;;;;;;1.88;0.82;;;10.80;99.90;;;;;;4994579;28;20052;-80
2024/03/05 10:07:29;;;;;;;1.83;1.10;;;11.00;99.90;;;;;;4984630;28;20132;-79
2024/03/05 10:10:10;;;;;;;2.28;1.25;;;11.00;99.90;;;;;;5002260;28;20164;-79
2024/03/05 10:12:40;;;;;;;0.73;0.73;;;10.90;99.90;;;;;;4971276;28;20142;-79
2024/03/05 10:15:12;;;;;;;0.82;0.80;;;11.00;99.90;;;;;;4963517;28;20046;-79
2024/03/05 10:17:41;;;;;;;2.05;1.25;;;11.20;99.90;;;;;;4979961;28;20054;-79
2024/03/05 10:20:10;;;;;;;2.15;1.00;;;11.00;99.90;;;;;;4994986;28;20067;-79
2024/03/05 10:22:37;;;;;;;2.63;1.40;;;11.00;99.90;;;;;;4986358;28;20077;-79
2024/03/05 10:25:13;;;;;;;1.83;1.10;;;11.00;99.90;;;;;;4983835;28;20066;-79
2024/03/05 10:27:45;;;;;;;1.05;0.85;;;10.90;99.90;;;;;;5000394;28;20649;-79
2024/03/05 10:30:24;;;;;;;1.85;1.00;;;10.90;99.90;;;;;;4966416;28;20056;-78
2024/03/05 10:32:57;;;;;;;1.13;1.00;;;11.00;99.90;;;;;;4999777;28;20049;-79
2024/03/05 10:35:24;;;;;;;1.25;1.00;;;10.90;99.90;;;;;;4984844;28;20069;-78
2024/03/05 10:38:05;;;;;;;1.13;0.90;;;10.90;99.90;;;;;;4983567;28;20108;-78
2024/03/05 10:40:34;;;;;;;1.30;1.02;;;10.80;99.90;;;;;;4968645;28;20204;-78
2024/03/05 10:43:04;;;;;;;1.10;0.90;;;10.80;99.90;;;;;;4986358;28;20077;-78
2024/03/05 10:45:41;;;;;;;0.95;0.70;;;10.80;99.90;;;;;;4982063;28;20053;-78
2024/03/05 10:48:09;;;;;;;0.57;0.57;;;10.70;99.90;;;;;;4985650;28;20052;-79
2024/03/05 10:50:39;;;;;;;0.63;0.63;;;10.60;99.90;;;;;;4986670;28;20049;-79
2024/03/05 10:53:07;;;;;;;0.70;0.70;;;10.60;99.90;;;;;;5002734;28;20056;-80
2024/03/05 10:55:37;;;;;;;1.23;0.82;;;10.50;99.90;;;;;;4970806;28;20058;-80
2024/03/05 11:00:42;;;;;;;0.80;0.80;;;10.40;99.90;;;;;;4993154;28;20045;-81
2024/03/05 11:03:10;;;;;;;1.50;0.80;;;10.50;99.90;;;;;;4988383;28;20046;-81
2024/03/05 11:05:52;;;;;;;1.38;1.13;;;10.70;99.90;;;;;;4958751;28;20045;-80
2024/03/05 11:08:20;;;;;;;1.83;1.27;;;10.80;99.90;;;;;;4981647;28;20042;-78
2024/03/05 11:10:57;;;;;;;2.35;1.83;;;11.00;99.90;;;;;;4970775;28;20137;-82
2024/03/05 11:13:25;;;;;;;2.75;2.00;;;11.00;99.90;;;;;;4987126;28;20096;-81
2024/03/05 11:15:52;;;;;;;2.42;1.63;;;10.90;99.90;;;;;;4985081;28;20507;-82
2024/03/05 11:18:29;;;;;;;2.10;1.70;;;11.00;99.90;;;;;;5003044;28;20046;-80
2024/03/05 11:20:56;;;;;;;2.30;1.90;;;11.20;99.90;;;;;;4969576;28;20492;-81
2024/03/05 11:23:29;;;;;;;4.47;3.28;;;11.20;99.90;;;;;;4999511;28;20073;-82
2024/03/05 11:26:07;;;;;;;5.07;3.53;;;11.20;99.90;;;;;;4967283;28;20073;-80
2024/03/05 11:28:37;;;;;;;4.53;3.13;;;11.00;99.90;;;;;;5000582;28;20049;-79
2024/03/05 11:31:17;;;;;;;4.30;3.28;;;10.90;99.90;;;;;;4984284;28;20160;-81
2024/03/05 11:33:58;;;;;;;4.65;3.38;;;10.70;99.90;;;;;;4971968;28;20050;-82
2024/03/05 11:36:36;;;;;;;3.78;2.20;;;10.50;99.90;;;;;;5013815;28;20108;-95
2024/03/05 11:39:04;;;;;;;3.22;2.40;;;10.30;99.90;;;;;;4984886;28;20049;-95
2024/03/05 11:41:47;;;;;;;3.08;1.90;;;10.10;99.90;;;;;;5009038;28;20046;-96
2024/03/05 11:44:35;;;;;;;;;;;10.10;99.90;;;;;;4986490;28;20070;-94
2024/03/05 11:47:03;;;;;;;2.47;1.42;;;10.10;99.90;;;;;;5017542;28;19984;-79
2024/03/05 11:49:31;;;;;;;1.52;1.30;;;10.10;99.90;;;;;;5001328;28;20574;-79
2024/03/05 11:51:58;;;;;;;2.38;1.35;;;10.00;99.90;;;;;;4983406;28;20050;-78
2024/03/05 11:54:25;;;;;;;1.13;1.02;;;10.00;99.90;;;;;;4994544;28;20137;-79
2024/03/05 11:56:59;;;;;;;1.23;0.95;;;10.00;99.90;;;;;;5002965;28;20045;-78
2024/03/05 11:59:36;;;;;;;2.05;1.42;;;10.10;99.90;;;;;;5007656;28;20120;-78
2024/03/05 12:02:15;;;;;;;3.38;1.80;;;10.20;99.90;;;;;;4949186;28;20149;-78
2024/03/05 12:04:43;;;;;;;3.78;2.47;;;10.10;99.90;;;;;;4936486;28;20086;-77
2024/03/05 12:07:13;;;;;;;3.47;2.72;;;10.00;99.90;;;;;;4948012;28;20047;-77
2024/03/05 12:09:40;;;;;;;3.70;2.92;;;10.10;99.90;;;;;;4939433;28;20286;-78
2024/03/05 12:12:11;;;;;;;2.53;2.30;;;10.10;99.90;;;;;;4958552;28;20053;-77
2024/03/05 12:14:51;;;;;;;4.10;2.97;;;10.30;99.90;;;;;;4942330;28;20055;-76
2024/03/05 12:17:19;;;;;;;3.53;2.72;;;10.30;99.90;;;;;;4945568;29;20047;-76
2024/03/05 12:19:57;;;;;;;3.22;2.55;;;10.30;99.90;;;;;;4946904;28;20062;-77
2024/03/05 12:22:24;;;;;;;2.95;2.65;;;10.30;99.90;;;;;;4944551;28;20077;-77
2024/03/05 12:24:51;;;;;;;3.63;2.80;;;10.40;99.90;;;;;;4944470;28;20043;-76
2024/03/05 12:27:18;;;;;;;3.28;2.35;;;10.40;99.90;;;;;;4944010;28;20614;-76
2024/03/05 12:29:44;;;;;;;2.72;2.45;;;10.50;99.90;;;;;;4947816;28;20577;-76
2024/03/05 12:32:12;;;;;;;1.85;1.70;;;10.70;99.90;;;;;;4929390;28;20063;-77
2024/03/05 12:34:42;;;;;;;5.40;2.17;;;10.80;99.90;;;;;;4931943;29;20067;-79
2024/03/05 12:37:10;;;;;;;2.08;1.73;;;10.90;99.90;;;;;;4948009;28;20055;-77
2024/03/05 12:39:38;;;;;;;2.83;2.03;;;11.00;99.90;;;;;;4947332;28;20047;-77
2024/03/05 12:42:11;;;;;;;2.45;1.88;;;11.10;99.90;;;;;;4928794;28;20051;-82
2024/03/05 12:44:37;;;;;;;2.03;1.83;;;11.20;99.90;;;;;;4943728;28;20047;-81
2024/03/05 12:47:11;;;;;;;3.25;2.60;;;11.20;99.90;;;;;;4942387;28;20798;-81
2024/03/05 12:49:44;;;;;;;2.55;2.20;;;11.10;92.70;;;;;;4935787;28;20456;-80
2024/03/05 12:52:12;;;;;;;3.10;2.15;;;11.00;92.60;;;;;;4950760;28;20051;-80
2024/03/05 12:54:40;;;;;;;2.55;1.92;;;11.00;95.00;;;;;;4946654;28;20048;-80
2024/03/05 12:57:08;;;;;;;3.05;2.30;;;11.10;88.60;;;;;;4947879;28;20077;-80
2024/03/05 12:59:35;;;;;;;1.67;1.33;;;11.80;81.70;;;;;;4948594;28;20062;-79
2024/03/05 13:02:03;;;;;;;1.88;1.50;;;12.30;60.20;;;;;;4966784;28;20416;-78
2024/03/05 13:04:30;;;;;;;2.00;1.77;;;12.30;50.10;;;;;;4969016;28;20124;-78
2024/03/05 13:06:57;;;;;;;2.45;1.67;;;12.00;36.20;;;;;;4969108;28;20483;-78
2024/03/05 13:09:24;;;;;;;2.67;2.00;;;11.70;36.90;;;;;;4968963;28;20089;-78
2024/03/05 13:11:51;;;;;;;4.18;2.20;;;11.80;28.70;;;;;;4967964;28;20152;-78